sensor_id;sensor_type;location;lat;lon;timestamp;pressure;altitude;pressure_sealevel;temperature
11321;BMP180;5715;48.234;14.320;2024-03-06T00:02:16;98438.00;;;13.60
11321;BMP180;5715;48.234;14.320;2024-03-06T01:07:22;98458.00;;;12.90
11321;BMP180;5715;48.234;14.320;2024-03-06T01:10:10;98460.00;;;12.80
11321;BMP180;5715;48.234;14.320;2024-03-06T01:12:58;98457.00;;;12.80
11321;BMP180;5715;48.234;14.320;2024-03-06T01:15:46;98448.00;;;12.70
11321;BMP180;5715;48.234;14.320;2024-03-06T01:18:33;98452.00;;;12.70
11321;BMP180;5715;48.234;14.320;2024-03-06T01:21:21;98445.00;;;12.60
11321;BMP180;5715;48.234;14.320;2024-03-06T01:24:09;98443.00;;;12.60
11321;BMP180;5715;48.234;14.320;2024-03-06T01:26:56;98453.00;;;12.60
11321;BMP180;5715;48.234;14.320;2024-03-06T01:29:44;98449.00;;;12.50
11321;BMP180;5715;48.234;14.320;2024-03-06T01:32:32;98450.00;;;12.40
11321;BMP180;5715;48.234;14.320;2024-03-06T01:35:21;98451.00;;;12.40
11321;BMP180;5715;48.234;14.320;2024-03-06T01:38:08;98451.00;;;12.50
11321;BMP180;5715;48.234;14.320;2024-03-06T01:40:57;98451.00;;;12.60
11321;BMP180;5715;48.234;14.320;2024-03-06T01:43:45;98452.00;;;12.50
11321;BMP180;5715;48.234;14.320;2024-03-06T01:46:34;98440.00;;;12.30
11321;BMP180;5715;48.234;14.320;2024-03-06T01:49:24;98441.00;;;12.60
11321;BMP180;5715;48.234;14.320;2024-03-06T01:52:26;98442.00;;;12.60
11321;BMP180;5715;48.234;14.320;2024-03-06T01:55:15;98441.00;;;12.90
11321;BMP180;5715;48.234;14.320;2024-03-06T01:58:03;98443.00;;;12.90
11321;BMP180;5715;48.234;14.320;2024-03-06T02:00:52;98451.00;;;12.80
11321;BMP180;5715;48.234;14.320;2024-03-06T02:03:40;98440.00;;;12.60
11321;BMP180;5715;48.234;14.320;2024-03-06T02:06:29;98446.00;;;12.70
11321;BMP180;5715;48.234;14.320;2024-03-06T02:09:17;98443.00;;;12.60
11321;BMP180;5715;48.234;14.320;2024-03-06T02:12:07;98438.00;;;12.60
11321;BMP180;5715;48.234;14.320;2024-03-06T02:14:56;98435.00;;;12.70
11321;BMP180;5715;48.234;14.320;2024-03-06T02:17:43;98445.00;;;12.90
11321;BMP180;5715;48.234;14.320;2024-03-06T02:20:31;98444.00;;;12.90
11321;BMP180;5715;48.234;14.320;2024-03-06T02:23:19;98441.00;;;13.00
11321;BMP180;5715;48.234;14.320;2024-03-06T02:26:08;98438.00;;;13.00
11321;BMP180;5715;48.234;14.320;2024-03-06T02:28:56;98439.00;;;12.80
11321;BMP180;5715;48.234;14.320;2024-03-06T02:31:44;98436.00;;;12.80
11321;BMP180;5715;48.234;14.320;2024-03-06T02:34:31;98440.00;;;12.80
11321;BMP180;5715;48.234;14.320;2024-03-06T02:37:19;98445.00;;;13.10
11321;BMP180;5715;48.234;14.320;2024-03-06T02:40:07;98443.00;;;13.20
11321;BMP180;5715;48.234;14.320;2024-03-06T02:42:57;98449.00;;;13.30
11321;BMP180;5715;48.234;14.320;2024-03-06T02:45:45;98451.00;;;13.40
11321;BMP180;5715;48.234;14.320;2024-03-06T02:48:32;98451.00;;;13.40
11321;BMP180;5715;48.234;14.320;2024-03-06T02:51:20;98451.00;;;13.20
11321;BMP180;5715;48.234;14.320;2024-03-06T02:54:08;98447.00;;;13.20
11321;BMP180;5715;48.234;14.320;2024-03-06T02:56:56;98446.00;;;13.20
11321;BMP180;5715;48.234;14.320;2024-03-06T02:59:44;98448.00;;;13.30
11321;BMP180;5715;48.234;14.320;2024-03-06T03:02:32;98449.00;;;13.30
11321;BMP180;5715;48.234;14.320;2024-03-06T03:05:20;98452.00;;;13.70
11321;BMP180;5715;48.234;14.320;2024-03-06T03:08:08;98450.00;;;13.70
11321;BMP180;5715;48.234;14.320;2024-03-06T03:10:56;98453.00;;;13.70
11321;BMP180;5715;48.234;14.320;2024-03-06T03:13:45;98445.00;;;13.70
11321;BMP180;5715;48.234;14.320;2024-03-06T03:16:33;98443.00;;;13.20
11321;BMP180;5715;48.234;14.320;2024-03-06T03:19:24;98445.00;;;13.40
11321;BMP180;5715;48.234;14.320;2024-03-06T03:22:15;98447.00;;;13.50
11321;BMP180;5715;48.234;14.320;2024-03-06T03:25:08;98452.00;;;13.60
11321;BMP180;5715;48.234;14.320;2024-03-06T03:27:56;98453.00;;;13.80
11321;BMP180;5715;48.234;14.320;2024-03-06T03:30:44;98454.00;;;13.70
11321;BMP180;5715;48.234;14.320;2024-03-06T03:33:41;98450.00;;;13.70
11321;BMP180;5715;48.234;14.320;2024-03-06T03:36:29;98450.00;;;13.60
11321;BMP180;5715;48.234;14.320;2024-03-06T03:39:19;98444.00;;;13.40
11321;BMP180;5715;48.234;14.320;2024-03-06T03:42:09;98445.00;;;13.60
11321;BMP180;5715;48.234;14.320;2024-03-06T03:45:11;98446.00;;;13.50
11321;BMP180;5715;48.234;14.320;2024-03-06T03:48:08;98449.00;;;13.50
11321;BMP180;5715;48.234;14.320;2024-03-06T03:51:11;98454.00;;;13.40
11321;BMP180;5715;48.234;14.320;2024-03-06T03:54:03;98447.00;;;13.30
11321;BMP180;5715;48.234;14.320;2024-03-06T03:56:51;98453.00;;;13.30
11321;BMP180;5715;48.234;14.320;2024-03-06T03:59:43;98454.00;;;13.30
11321;BMP180;5715;48.234;14.320;2024-03-06T04:02:33;98449.00;;;13.40
11321;BMP180;5715;48.234;14.320;2024-03-06T04:05:27;98454.00;;;13.30
11321;BMP180;5715;48.234;14.320;2024-03-06T04:08:21;98438.00;;;13.20
11321;BMP180;5715;48.234;14.320;2024-03-06T04:11:09;98452.00;;;13.20
11321;BMP180;5715;48.234;14.320;2024-03-06T04:14:00;98447.00;;;13.20
11321;BMP180;5715;48.234;14.320;2024-03-06T04:16:49;98454.00;;;13.10
11321;BMP180;5715;48.234;14.320;2024-03-06T04:19:40;98455.00;;;13.10
11321;BMP180;5715;48.234;14.320;2024-03-06T04:22:35;98459.00;;;13.10
11321;BMP180;5715;48.234;14.320;2024-03-06T04:25:30;98450.00;;;13.10
11321;BMP180;5715;48.234;14.320;2024-03-06T04:28:18;98453.00;;;13.20
11321;BMP180;5715;48.234;14.320;2024-03-06T04:31:06;98456.00;;;13.20
11321;BMP180;5715;48.234;14.320;2024-03-06T04:33:54;98458.00;;;13.30
11321;BMP180;5715;48.234;14.320;2024-03-06T04:36:42;98460.00;;;13.50
11321;BMP180;5715;48.234;14.320;2024-03-06T04:39:29;98473.00;;;13.70
11321;BMP180;5715;48.234;14.320;2024-03-06T04:42:17;98470.00;;;13.60
11321;BMP180;5715;48.234;14.320;2024-03-06T04:45:15;98469.00;;;13.70
11321;BMP180;5715;48.234;14.320;2024-03-06T04:48:03;98473.00;;;13.70
11321;BMP180;5715;48.234;14.320;2024-03-06T04:50:51;98473.00;;;13.80
11321;BMP180;5715;48.234;14.320;2024-03-06T04:53:40;98471.00;;;13.80
11321;BMP180;5715;48.234;14.320;2024-03-06T04:56:29;98467.00;;;14.00
11321;BMP180;5715;48.234;14.320;2024-03-06T04:59:17;98480.00;;;13.80
11321;BMP180;5715;48.234;14.320;2024-03-06T05:02:04;98476.00;;;13.60
11321;BMP180;5715;48.234;14.320;2024-03-06T05:04:52;98477.00;;;13.30
11321;BMP180;5715;48.234;14.320;2024-03-06T05:07:58;98482.00;;;13.50
11321;BMP180;5715;48.234;14.320;2024-03-06T05:11:03;98479.00;;;13.30
11321;BMP180;5715;48.234;14.320;2024-03-06T05:14:08;98497.00;;;13.70
11321;BMP180;5715;48.234;14.320;2024-03-06T05:17:12;98494.00;;;13.60
11321;BMP180;5715;48.234;14.320;2024-03-06T05:20:18;98490.00;;;13.50
11321;BMP180;5715;48.234;14.320;2024-03-06T05:23:22;98484.00;;;13.20
11321;BMP180;5715;48.234;14.320;2024-03-06T05:26:28;98492.00;;;13.30
11321;BMP180;5715;48.234;14.320;2024-03-06T05:29:33;98493.00;;;13.40
11321;BMP180;5715;48.234;14.320;2024-03-06T05:32:38;98500.00;;;13.40
11321;BMP180;5715;48.234;14.320;2024-03-06T05:35:43;98494.00;;;13.50
11321;BMP180;5715;48.234;14.320;2024-03-06T05:38:47;98498.00;;;13.20
11321;BMP180;5715;48.234;14.320;2024-03-06T05:41:59;98511.00;;;13.70
11321;BMP180;5715;48.234;14.320;2024-03-06T05:45:04;98513.00;;;13.80
11321;BMP180;5715;48.234;14.320;2024-03-06T05:48:15;98517.00;;;13.80
11321;BMP180;5715;48.234;14.320;2024-03-06T05:51:20;98522.00;;;13.70
11321;BMP180;5715;48.234;14.320;2024-03-06T05:54:25;98518.00;;;14.10
11321;BMP180;5715;48.234;14.320;2024-03-06T05:57:31;98518.00;;;14.20
11321;BMP180;5715;48.234;14.320;2024-03-06T06:00:36;98520.00;;;14.30
11321;BMP180;5715;48.234;14.320;2024-03-06T06:03:23;98522.00;;;14.40
11321;BMP180;5715;48.234;14.320;2024-03-06T06:06:11;98524.00;;;14.30
11321;BMP180;5715;48.234;14.320;2024-03-06T06:08:59;98527.00;;;14.60
11321;BMP180;5715;48.234;14.320;2024-03-06T06:11:47;98542.00;;;14.70
11321;BMP180;5715;48.234;14.320;2024-03-06T06:14:35;98540.00;;;14.80
11321;BMP180;5715;48.234;14.320;2024-03-06T06:17:22;98541.00;;;14.80
11321;BMP180;5715;48.234;14.320;2024-03-06T06:20:12;98539.00;;;14.90
11321;BMP180;5715;48.234;14.320;2024-03-06T06:23:04;98545.00;;;14.40
11321;BMP180;5715;48.234;14.320;2024-03-06T06:25:52;98544.00;;;14.80
11321;BMP180;5715;48.234;14.320;2024-03-06T06:28:43;98548.00;;;15.10
11321;BMP180;5715;48.234;14.320;2024-03-06T06:31:31;98553.00;;;14.80
11321;BMP180;5715;48.234;14.320;2024-03-06T06:34:19;98552.00;;;15.10
11321;BMP180;5715;48.234;14.320;2024-03-06T06:37:07;98559.00;;;15.00
11321;BMP180;5715;48.234;14.320;2024-03-06T06:39:54;98566.00;;;14.80
11321;BMP180;5715;48.234;14.320;2024-03-06T06:42:47;98564.00;;;15.20
11321;BMP180;5715;48.234;14.320;2024-03-06T06:45:37;98572.00;;;15.40
11321;BMP180;5715;48.234;14.320;2024-03-06T06:48:25;98572.00;;;15.20
11321;BMP180;5715;48.234;14.320;2024-03-06T06:51:13;98572.00;;;15.50
11321;BMP180;5715;48.234;14.320;2024-03-06T06:54:01;98579.00;;;15.50
11321;BMP180;5715;48.234;14.320;2024-03-06T06:56:48;98579.00;;;15.70
11321;BMP180;5715;48.234;14.320;2024-03-06T06:59:37;98573.00;;;15.60
11321;BMP180;5715;48.234;14.320;2024-03-06T07:02:25;98580.00;;;15.70
11321;BMP180;5715;48.234;14.320;2024-03-06T07:05:12;98585.00;;;15.60
11321;BMP180;5715;48.234;14.320;2024-03-06T07:08:00;98585.00;;;15.60
11321;BMP180;5715;48.234;14.320;2024-03-06T07:10:48;98588.00;;;15.80
11321;BMP180;5715;48.234;14.320;2024-03-06T07:13:36;98589.00;;;15.70
11321;BMP180;5715;48.234;14.320;2024-03-06T07:16:25;98596.00;;;15.90
11321;BMP180;5715;48.234;14.320;2024-03-06T07:19:13;98592.00;;;16.00
11321;BMP180;5715;48.234;14.320;2024-03-06T07:22:00;98603.00;;;15.90
11321;BMP180;5715;48.234;14.320;2024-03-06T07:24:48;98600.00;;;15.80
11321;BMP180;5715;48.234;14.320;2024-03-06T07:27:36;98599.00;;;16.00
11321;BMP180;5715;48.234;14.320;2024-03-06T07:30:24;98604.00;;;16.00
11321;BMP180;5715;48.234;14.320;2024-03-06T07:33:12;98596.00;;;16.30
11321;BMP180;5715;48.234;14.320;2024-03-06T07:36:01;98609.00;;;16.10
11321;BMP180;5715;48.234;14.320;2024-03-06T07:38:49;98606.00;;;16.40
11321;BMP180;5715;48.234;14.320;2024-03-06T07:41:36;98608.00;;;16.00
11321;BMP180;5715;48.234;14.320;2024-03-06T07:44:24;98608.00;;;16.20
11321;BMP180;5715;48.234;14.320;2024-03-06T07:47:12;98613.00;;;16.30
11321;BMP180;5715;48.234;14.320;2024-03-06T07:50:02;98611.00;;;16.50
11321;BMP180;5715;48.234;14.320;2024-03-06T07:52:50;98616.00;;;16.50
11321;BMP180;5715;48.234;14.320;2024-03-06T07:55:37;98623.00;;;16.40
11321;BMP180;5715;48.234;14.320;2024-03-06T07:58:26;98621.00;;;16.60
11321;BMP180;5715;48.234;14.320;2024-03-06T08:01:13;98621.00;;;16.60
11321;BMP180;5715;48.234;14.320;2024-03-06T08:04:02;98631.00;;;16.80
11321;BMP180;5715;48.234;14.320;2024-03-06T08:06:50;98632.00;;;17.10
11321;BMP180;5715;48.234;14.320;2024-03-06T08:09:37;98636.00;;;16.90
11321;BMP180;5715;48.234;14.320;2024-03-06T08:12:25;98637.00;;;16.70
11321;BMP180;5715;48.234;14.320;2024-03-06T08:15:14;98639.00;;;16.50
11321;BMP180;5715;48.234;14.320;2024-03-06T08:18:02;98642.00;;;16.40
11321;BMP180;5715;48.234;14.320;2024-03-06T08:20:51;98641.00;;;16.30
11321;BMP180;5715;48.234;14.320;2024-03-06T08:23:40;98645.00;;;16.60
11321;BMP180;5715;48.234;14.320;2024-03-06T08:26:28;98648.00;;;16.50
11321;BMP180;5715;48.234;14.320;2024-03-06T08:29:16;98655.00;;;16.70
11321;BMP180;5715;48.234;14.320;2024-03-06T08:32:05;98659.00;;;16.30
11321;BMP180;5715;48.234;14.320;2024-03-06T08:34:52;98656.00;;;17.00
11321;BMP180;5715;48.234;14.320;2024-03-06T08:37:41;98662.00;;;16.40
11321;BMP180;5715;48.234;14.320;2024-03-06T08:40:29;98664.00;;;16.70
11321;BMP180;5715;48.234;14.320;2024-03-06T08:43:17;98659.00;;;16.40
11321;BMP180;5715;48.234;14.320;2024-03-06T08:46:06;98670.00;;;16.10
11321;BMP180;5715;48.234;14.320;2024-03-06T08:48:54;98674.00;;;16.50
11321;BMP180;5715;48.234;14.320;2024-03-06T08:51:42;98671.00;;;16.50
11321;BMP180;5715;48.234;14.320;2024-03-06T08:54:30;98673.00;;;16.90
11321;BMP180;5715;48.234;14.320;2024-03-06T08:57:20;98680.00;;;16.80
11321;BMP180;5715;48.234;14.320;2024-03-06T09:00:10;98685.00;;;16.80
11321;BMP180;5715;48.234;14.320;2024-03-06T09:02:59;98672.00;;;16.70
11321;BMP180;5715;48.234;14.320;2024-03-06T09:05:47;98685.00;;;17.00
11321;BMP180;5715;48.234;14.320;2024-03-06T09:08:35;98680.00;;;17.30
11321;BMP180;5715;48.234;14.320;2024-03-06T09:11:23;98692.00;;;17.10
11321;BMP180;5715;48.234;14.320;2024-03-06T09:14:10;98684.00;;;16.90
11321;BMP180;5715;48.234;14.320;2024-03-06T09:16:58;98687.00;;;16.50
11321;BMP180;5715;48.234;14.320;2024-03-06T09:19:46;98687.00;;;16.50
11321;BMP180;5715;48.234;14.320;2024-03-06T09:22:50;98697.00;;;16.10
11321;BMP180;5715;48.234;14.320;2024-03-06T09:25:41;98695.00;;;16.10
11321;BMP180;5715;48.234;14.320;2024-03-06T09:28:29;98694.00;;;16.50
11321;BMP180;5715;48.234;14.320;2024-03-06T09:31:17;98698.00;;;16.30
11321;BMP180;5715;48.234;14.320;2024-03-06T09:34:05;98692.00;;;16.30
11321;BMP180;5715;48.234;14.320;2024-03-06T09:36:52;98698.00;;;17.00
11321;BMP180;5715;48.234;14.320;2024-03-06T09:39:40;98700.00;;;16.90
11321;BMP180;5715;48.234;14.320;2024-03-06T09:42:28;98698.00;;;16.90
11321;BMP180;5715;48.234;14.320;2024-03-06T09:45:17;98694.00;;;17.00
11321;BMP180;5715;48.234;14.320;2024-03-06T09:48:05;98700.00;;;17.20
11321;BMP180;5715;48.234;14.320;2024-03-06T09:51:00;98708.00;;;16.90
11321;BMP180;5715;48.234;14.320;2024-03-06T09:53:48;98704.00;;;17.40
11321;BMP180;5715;48.234;14.320;2024-03-06T09:56:39;98703.00;;;17.00
11321;BMP180;5715;48.234;14.320;2024-03-06T09:59:27;98694.00;;;17.10
11321;BMP180;5715;48.234;14.320;2024-03-06T10:02:38;98693.00;;;17.20
11321;BMP180;5715;48.234;14.320;2024-03-06T10:05:26;98692.00;;;17.30
11321;BMP180;5715;48.234;14.320;2024-03-06T10:08:14;98703.00;;;17.80
11321;BMP180;5715;48.234;14.320;2024-03-06T10:11:05;98697.00;;;17.40
11321;BMP180;5715;48.234;14.320;2024-03-06T10:13:53;98694.00;;;17.80
11321;BMP180;5715;48.234;14.320;2024-03-06T10:16:59;98704.00;;;18.10
11321;BMP180;5715;48.234;14.320;2024-03-06T10:19:47;98705.00;;;18.40
11321;BMP180;5715;48.234;14.320;2024-03-06T10:22:38;98703.00;;;18.60
11321;BMP180;5715;48.234;14.320;2024-03-06T10:25:27;98706.00;;;18.60
11321;BMP180;5715;48.234;14.320;2024-03-06T10:28:15;98698.00;;;18.50
11321;BMP180;5715;48.234;14.320;2024-03-06T10:31:04;98704.00;;;18.60
11321;BMP180;5715;48.234;14.320;2024-03-06T10:33:55;98707.00;;;18.30
11321;BMP180;5715;48.234;14.320;2024-03-06T10:36:43;98701.00;;;18.50
11321;BMP180;5715;48.234;14.320;2024-03-06T10:39:34;98700.00;;;18.60
11321;BMP180;5715;48.234;14.320;2024-03-06T10:42:27;98701.00;;;18.80
11321;BMP180;5715;48.234;14.320;2024-03-06T10:45:16;98712.00;;;18.40
11321;BMP180;5715;48.234;14.320;2024-03-06T10:48:07;98711.00;;;18.10
11321;BMP180;5715;48.234;14.320;2024-03-06T10:50:57;98707.00;;;18.50
11321;BMP180;5715;48.234;14.320;2024-03-06T10:53:45;98699.00;;;19.20
11321;BMP180;5715;48.234;14.320;2024-03-06T10:56:33;98701.00;;;19.30
11321;BMP180;5715;48.234;14.320;2024-03-06T10:59:25;98702.00;;;19.70
11321;BMP180;5715;48.234;14.320;2024-03-06T11:02:17;98709.00;;;19.60
11321;BMP180;5715;48.234;14.320;2024-03-06T11:05:07;98699.00;;;19.40
11321;BMP180;5715;48.234;14.320;2024-03-06T11:07:56;98709.00;;;19.40
11321;BMP180;5715;48.234;14.320;2024-03-06T11:10:44;98702.00;;;19.10
11321;BMP180;5715;48.234;14.320;2024-03-06T11:13:31;98706.00;;;18.90
11321;BMP180;5715;48.234;14.320;2024-03-06T11:16:29;98706.00;;;18.60
11321;BMP180;5715;48.234;14.320;2024-03-06T11:19:20;98700.00;;;19.60
11321;BMP180;5715;48.234;14.320;2024-03-06T11:22:08;98693.00;;;19.50
11321;BMP180;5715;48.234;14.320;2024-03-06T11:24:56;98700.00;;;19.30
11321;BMP180;5715;48.234;14.320;2024-03-06T11:28:04;98697.00;;;20.00
11321;BMP180;5715;48.234;14.320;2024-03-06T11:31:05;98691.00;;;20.10
11321;BMP180;5715;48.234;14.320;2024-03-06T11:33:54;98681.00;;;20.20
11321;BMP180;5715;48.234;14.320;2024-03-06T11:36:47;98685.00;;;20.30
11321;BMP180;5715;48.234;14.320;2024-03-06T11:39:37;98696.00;;;20.40
11321;BMP180;5715;48.234;14.320;2024-03-06T11:42:35;98695.00;;;20.90
11321;BMP180;5715;48.234;14.320;2024-03-06T11:45:26;98688.00;;;21.10
11321;BMP180;5715;48.234;14.320;2024-03-06T11:48:18;98690.00;;;21.40
11321;BMP180;5715;48.234;14.320;2024-03-06T11:51:09;98691.00;;;21.70
11321;BMP180;5715;48.234;14.320;2024-03-06T11:53:57;98698.00;;;21.60
11321;BMP180;5715;48.234;14.320;2024-03-06T11:56:45;98679.00;;;21.60
11321;BMP180;5715;48.234;14.320;2024-03-06T11:59:38;98689.00;;;21.90
11321;BMP180;5715;48.234;14.320;2024-03-06T12:02:26;98689.00;;;22.00
11321;BMP180;5715;48.234;14.320;2024-03-06T12:05:14;98686.00;;;22.00
11321;BMP180;5715;48.234;14.320;2024-03-06T12:08:03;98685.00;;;22.00
11321;BMP180;5715;48.234;14.320;2024-03-06T12:10:55;98685.00;;;21.80
11321;BMP180;5715;48.234;14.320;2024-03-06T12:13:45;98688.00;;;21.90
11321;BMP180;5715;48.234;14.320;2024-03-06T12:16:33;98682.00;;;22.10
11321;BMP180;5715;48.234;14.320;2024-03-06T12:19:20;98679.00;;;22.50
11321;BMP180;5715;48.234;14.320;2024-03-06T12:22:11;98680.00;;;22.20
11321;BMP180;5715;48.234;14.320;2024-03-06T12:25:00;98684.00;;;21.90
11321;BMP180;5715;48.234;14.320;2024-03-06T12:27:49;98687.00;;;21.80
11321;BMP180;5715;48.234;14.320;2024-03-06T12:30:43;98675.00;;;22.20
11321;BMP180;5715;48.234;14.320;2024-03-06T12:33:32;98676.00;;;22.40
11321;BMP180;5715;48.234;14.320;2024-03-06T12:36:25;98672.00;;;22.30
11321;BMP180;5715;48.234;14.320;2024-03-06T12:39:15;98676.00;;;22.70
11321;BMP180;5715;48.234;14.320;2024-03-06T12:42:08;98678.00;;;23.00
11321;BMP180;5715;48.234;14.320;2024-03-06T12:44:56;98683.00;;;23.00
11321;BMP180;5715;48.234;14.320;2024-03-06T12:47:47;98673.00;;;23.20
11321;BMP180;5715;48.234;14.320;2024-03-06T12:50:38;98672.00;;;23.00
11321;BMP180;5715;48.234;14.320;2024-03-06T12:53:26;98676.00;;;23.30
11321;BMP180;5715;48.234;14.320;2024-03-06T12:56:14;98671.00;;;22.90
11321;BMP180;5715;48.234;14.320;2024-03-06T12:59:01;98674.00;;;22.90
11321;BMP180;5715;48.234;14.320;2024-03-06T13:01:50;98671.00;;;23.00
11321;BMP180;5715;48.234;14.320;2024-03-06T13:04:38;98675.00;;;22.50
11321;BMP180;5715;48.234;14.320;2024-03-06T13:07:26;98667.00;;;22.90
11321;BMP180;5715;48.234;14.320;2024-03-06T13:10:15;98673.00;;;22.60
11321;BMP180;5715;48.234;14.320;2024-03-06T13:13:03;98671.00;;;22.70
11321;BMP180;5715;48.234;14.320;2024-03-06T13:15:54;98670.00;;;22.50
11321;BMP180;5715;48.234;14.320;2024-03-06T13:18:41;98667.00;;;22.50
11321;BMP180;5715;48.234;14.320;2024-03-06T13:21:29;98671.00;;;22.40
11321;BMP180;5715;48.234;14.320;2024-03-06T13:24:17;98656.00;;;22.60
11321;BMP180;5715;48.234;14.320;2024-03-06T13:27:05;98665.00;;;22.10
11321;BMP180;5715;48.234;14.320;2024-03-06T13:29:53;98669.00;;;22.30
11321;BMP180;5715;48.234;14.320;2024-03-06T13:32:41;98665.00;;;22.00
11321;BMP180;5715;48.234;14.320;2024-03-06T13:35:30;98668.00;;;21.20
11321;BMP180;5715;48.234;14.320;2024-03-06T13:38:18;98666.00;;;21.50
11321;BMP180;5715;48.234;14.320;2024-03-06T13:41:06;98667.00;;;21.40
11321;BMP180;5715;48.234;14.320;2024-03-06T13:43:54;98671.00;;;21.60
11321;BMP180;5715;48.234;14.320;2024-03-06T13:46:42;98667.00;;;21.50
11321;BMP180;5715;48.234;14.320;2024-03-06T13:52:26;98667.00;;;21.50
11321;BMP180;5715;48.234;14.320;2024-03-06T13:55:14;98666.00;;;21.30
11321;BMP180;5715;48.234;14.320;2024-03-06T13:58:04;98668.00;;;21.10
11321;BMP180;5715;48.234;14.320;2024-03-06T14:00:52;98677.00;;;21.00
11321;BMP180;5715;48.234;14.320;2024-03-06T14:03:40;98671.00;;;20.80
11321;BMP180;5715;48.234;14.320;2024-03-06T14:06:28;98668.00;;;20.50
11321;BMP180;5715;48.234;14.320;2024-03-06T14:09:16;98671.00;;;20.40
11321;BMP180;5715;48.234;14.320;2024-03-06T14:12:04;98664.00;;;20.50
11321;BMP180;5715;48.234;14.320;2024-03-06T14:14:53;98664.00;;;20.30
11321;BMP180;5715;48.234;14.320;2024-03-06T14:17:42;98670.00;;;20.10
11321;BMP180;5715;48.234;14.320;2024-03-06T14:20:30;98676.00;;;20.10
11321;BMP180;5715;48.234;14.320;2024-03-06T14:23:17;98670.00;;;20.00
11321;BMP180;5715;48.234;14.320;2024-03-06T14:26:05;98667.00;;;20.10
11321;BMP180;5715;48.234;14.320;2024-03-06T14:28:53;98674.00;;;20.00
11321;BMP180;5715;48.234;14.320;2024-03-06T14:31:41;98677.00;;;20.00
11321;BMP180;5715;48.234;14.320;2024-03-06T14:34:29;98672.00;;;19.90
11321;BMP180;5715;48.234;14.320;2024-03-06T14:37:17;98668.00;;;20.00
11321;BMP180;5715;48.234;14.320;2024-03-06T14:40:06;98671.00;;;19.80
11321;BMP180;5715;48.234;14.320;2024-03-06T14:42:56;98669.00;;;19.90
11321;BMP180;5715;48.234;14.320;2024-03-06T14:45:46;98663.00;;;19.80
11321;BMP180;5715;48.234;14.320;2024-03-06T14:48:34;98671.00;;;19.80
11321;BMP180;5715;48.234;14.320;2024-03-06T14:51:22;98675.00;;;19.80
11321;BMP180;5715;48.234;14.320;2024-03-06T14:54:10;98681.00;;;20.00
11321;BMP180;5715;48.234;14.320;2024-03-06T14:56:58;98681.00;;;19.90
11321;BMP180;5715;48.234;14.320;2024-03-06T14:59:45;98676.00;;;19.60
11321;BMP180;5715;48.234;14.320;2024-03-06T15:02:33;98670.00;;;19.70
11321;BMP180;5715;48.234;14.320;2024-03-06T15:05:22;98672.00;;;19.80
11321;BMP180;5715;48.234;14.320;2024-03-06T15:08:13;98671.00;;;19.60
11321;BMP180;5715;48.234;14.320;2024-03-06T15:11:02;98678.00;;;19.60
11321;BMP180;5715;48.234;14.320;2024-03-06T15:13:50;98678.00;;;19.50
11321;BMP180;5715;48.234;14.320;2024-03-06T15:16:41;98680.00;;;19.60
11321;BMP180;5715;48.234;14.320;2024-03-06T15:19:30;98675.00;;;19.50
11321;BMP180;5715;48.234;14.320;2024-03-06T15:22:21;98687.00;;;19.50
11321;BMP180;5715;48.234;14.320;2024-03-06T15:25:14;98689.00;;;19.40
11321;BMP180;5715;48.234;14.320;2024-03-06T15:28:03;98685.00;;;19.40
11321;BMP180;5715;48.234;14.320;2024-03-06T15:30:53;98692.00;;;19.30
11321;BMP180;5715;48.234;14.320;2024-03-06T15:33:44;98685.00;;;19.20
11321;BMP180;5715;48.234;14.320;2024-03-06T15:36:50;98692.00;;;19.20
11321;BMP180;5715;48.234;14.320;2024-03-06T15:39:45;98689.00;;;19.20
11321;BMP180;5715;48.234;14.320;2024-03-06T15:42:36;98689.00;;;19.30
11321;BMP180;5715;48.234;14.320;2024-03-06T15:45:24;98698.00;;;19.10
11321;BMP180;5715;48.234;14.320;2024-03-06T15:48:12;98694.00;;;19.00
11321;BMP180;5715;48.234;14.320;2024-03-06T15:51:01;98700.00;;;19.00
11321;BMP180;5715;48.234;14.320;2024-03-06T15:53:49;98695.00;;;19.00
11321;BMP180;5715;48.234;14.320;2024-03-06T15:56:40;98697.00;;;19.00
11321;BMP180;5715;48.234;14.320;2024-03-06T15:59:28;98705.00;;;18.90
11321;BMP180;5715;48.234;14.320;2024-03-06T16:02:20;98703.00;;;18.90
11321;BMP180;5715;48.234;14.320;2024-03-06T16:05:08;98696.00;;;18.80
11321;BMP180;5715;48.234;14.320;2024-03-06T16:08:00;98697.00;;;18.70
11321;BMP180;5715;48.234;14.320;2024-03-06T16:10:52;98698.00;;;18.50
11321;BMP180;5715;48.234;14.320;2024-03-06T16:13:40;98696.00;;;18.70
11321;BMP180;5715;48.234;14.320;2024-03-06T16:16:29;98698.00;;;18.60
11321;BMP180;5715;48.234;14.320;2024-03-06T16:19:17;98695.00;;;18.60
11321;BMP180;5715;48.234;14.320;2024-03-06T16:22:14;98704.00;;;18.30
11321;BMP180;5715;48.234;14.320;2024-03-06T16:25:03;98693.00;;;18.30
11321;BMP180;5715;48.234;14.320;2024-03-06T16:27:52;98706.00;;;18.50
11321;BMP180;5715;48.234;14.320;2024-03-06T16:30:40;98707.00;;;18.60
11321;BMP180;5715;48.234;14.320;2024-03-06T16:33:28;98716.00;;;18.50
11321;BMP180;5715;48.234;14.320;2024-03-06T16:36:15;98718.00;;;18.40
11321;BMP180;5715;48.234;14.320;2024-03-06T16:39:03;98711.00;;;18.40
11321;BMP180;5715;48.234;14.320;2024-03-06T16:41:52;98716.00;;;18.40
11321;BMP180;5715;48.234;14.320;2024-03-06T16:44:42;98717.00;;;18.40
11321;BMP180;5715;48.234;14.320;2024-03-06T16:47:30;98722.00;;;18.30
11321;BMP180;5715;48.234;14.320;2024-03-06T16:50:18;98721.00;;;18.20
11321;BMP180;5715;48.234;14.320;2024-03-06T16:53:07;98726.00;;;18.30
11321;BMP180;5715;48.234;14.320;2024-03-06T16:55:55;98714.00;;;18.20
11321;BMP180;5715;48.234;14.320;2024-03-06T16:58:42;98724.00;;;18.20
11321;BMP180;5715;48.234;14.320;2024-03-06T17:01:30;98729.00;;;18.10
11321;BMP180;5715;48.234;14.320;2024-03-06T17:04:18;98728.00;;;18.20
11321;BMP180;5715;48.234;14.320;2024-03-06T17:07:06;98731.00;;;18.20
11321;BMP180;5715;48.234;14.320;2024-03-06T17:09:57;98733.00;;;18.20
11321;BMP180;5715;48.234;14.320;2024-03-06T17:12:44;98737.00;;;18.10
11321;BMP180;5715;48.234;14.320;2024-03-06T17:15:32;98739.00;;;18.10
11321;BMP180;5715;48.234;14.320;2024-03-06T17:18:20;98747.00;;;18.10
11321;BMP180;5715;48.234;14.320;2024-03-06T17:21:09;98743.00;;;18.00
11321;BMP180;5715;48.234;14.320;2024-03-06T17:23:57;98746.00;;;18.00
11321;BMP180;5715;48.234;14.320;2024-03-06T17:26:45;98744.00;;;18.00